Argonia, KS

10:50 AM CDT on September 19, 2014 (GMT -0500)
Anthony Medical Center | Change Station
CLOSE
Current Station
Personal Weather Station
Location: Anthony, KS
Elevation: 1355 ft
Nearby Weather Stations
4.0 Earthquake: Medford, Oklahoma (14 hours ago)  

Elev 1355 ft 37.16 °N, 98.02 °W | Updated 9 seconds ago

Clear
Clear
79.9 °F
Feels Like 83 °F
N
3.0
Wind Variable Wind from SE
Gusts 4.0 mph

Today
High -- | Low -- °F
--% Chance of Precip.
Yesterday
High -- | Low -- °F
Precip. -- in
7:16 AM 7:32 PM
Waning Crescent, 18% visible
Pressure 29.97 in
Visibility 10.0 miles
Clouds Few 1800 ft
Heat Index 83 °F
Dew Point 70 °F
Humidity 71%
Rainfall 0.00 in
Snow Depth Not available.
UV 3 out of 12
Pollen 7.20 out of 12
Air Quality Not available.
Flu Activity Not available.
METAR KICT 191453Z 17009KT 10SM FEW018 23/18 A3000 RMK AO2 SLP147 T02330183 51008

More Conditions Fewer Conditions

Pressure 29.97 in
Visibility 10.0 miles
Clouds Few 1800 ft
Heat Index 83 °F
Dew Point 70 °F
Humidity 71%
Rainfall 0.00 in
Snow Depth Not available.
UV 3 out of 12
Pollen 7.20 out of 12
Air Quality Not available.
Flu Activity Not available.
METAR KICT 191453Z 17009KT 10SM FEW018 23/18 A3000 RMK AO2 SLP147 T02330183 51008

More Conditions Fewer Conditions

10-Day Weather Forecast

Almanac

Astronomy

Sep. 19, 2014 Rise Set
Actual Time 7:16 AM CDT 7:32 PM CDT
Civil Twilight 6:50 AM CDT 7:58 PM CDT
Nautical Twilight 6:19 AM CDT 8:29 PM CDT
Astronomical Twilight 5:48 AM CDT 8:59 PM CDT
Moon 3:07 AM CDT 4:58 PM CDT
Length of Visible Light 13h 08m
Length of Day
12h 16m
Tomorrow will be 2m 22s shorter.
Waning Crescent, 18% of the Moon is Illuminated
Today
Waning Crescent
Sep 24
New
Oct 1
First Quarter
Oct 8
Full
Oct 15
Last Quarter

Today's Extremes

State Highs State Lows

Community

WunderPhotos

Upload Photos

1,754,637 photos uploaded!

WunderBlogs® & News

By Dr. Jeff Masters
Director of Meteorology, Weather Underground
By Kari Strenfel
Meteorologist, Weather Underground
By Christopher C. Burt
Weather Historian, Weather Underground
September 19, 2014
September 19, 2014
September 19, 2014

Nearby

Snow Depth

Station Depth Elevation
No new snow has been reported.

Earthquake Activity

City Distance Mag. Time & Date
Jones, Oklahoma 120 miles 2.8 1:13 AM CDT
2014-09-19
Perry, Oklahoma 79 miles 3.3 12:08 AM CDT
2014-09-19
Cherokee, Oklahoma 40 miles 2.8 10:11 PM CDT
2014-09-18
Medford, Oklahoma 48 miles 4.0 8:31 PM CDT
2014-09-18
Minimum magnitude displayed is 2.5.

Coastal Water Temperatures

Place Temperature
No Stations Reporting

Nearby Weather Stations